METAR Data

Data at: 0647 UTC 28 Sep 2022

METAR for:KBID (Block Island Arpt, RI, US)
Text:KBID 280556Z AUTO 27004KT 10SM BKN042 BKN055 16/11 A2997 RMK AO2 SLP150 T01610106 10178 20156 51011
Temperature: 16.1°C ( 61°F)
Dewpoint: 10.6°C ( 51°F) [RH = 70%]
Pressure (altimeter):29.97 inches Hg (1015.0 mb) [Sea level pressure: 1015.0 mb]
Winds:from the W (270 degrees) at 5 MPH (4 knots; 2.1 m/s)
Visibility:10 or more sm (16+ km)
Ceiling:4200 feet AGL
Clouds: broken clouds at 4200 feet AGL, broken clouds at 5500 feet AGL
QC Flag:automated observation with no human augmentation